createdAt,value
2022-12-19T00:01:34.318Z,76.52
2022-12-19T00:04:07.026Z,76.58
2022-12-19T00:06:37.395Z,77.07
2022-12-19T00:09:05.157Z,77.01
2022-12-19T00:11:33.617Z,76.99
2022-12-19T00:14:00.361Z,77.06
2022-12-19T00:16:29.113Z,76.70
2022-12-19T00:18:58.521Z,76.89
2022-12-19T00:21:27.956Z,76.82
2022-12-19T00:23:54.990Z,77.05
2022-12-19T00:26:24.189Z,76.66
2022-12-19T00:28:54.666Z,76.77
2022-12-19T00:31:26.710Z,76.77
2022-12-19T00:33:53.521Z,77.17
2022-12-19T00:36:25.315Z,76.97
2022-12-19T00:38:54.131Z,77.18
2022-12-19T00:41:24.899Z,77.10
2022-12-19T00:43:56.156Z,76.96
2022-12-19T00:46:24.144Z,76.98
2022-12-19T00:48:50.906Z,77.36
2022-12-19T00:51:20.339Z,77.37
2022-12-19T00:53:48.935Z,77.61
2022-12-19T00:56:18.956Z,77.67
2022-12-19T00:58:47.330Z,77.70
2022-12-19T01:01:17.493Z,77.61
2022-12-19T01:04:04.511Z,77.65
2022-12-19T01:06:32.022Z,77.65
2022-12-19T01:08:58.761Z,77.45
2022-12-19T01:11:44.110Z,77.39
2022-12-19T01:14:14.939Z,77.59
2022-12-19T01:16:44.467Z,77.22
2022-12-19T01:19:11.314Z,77.50
2022-12-19T01:21:37.961Z,77.49
2022-12-19T01:24:06.077Z,78.06
2022-12-19T01:26:32.767Z,77.84
2022-12-19T01:28:59.805Z,77.99
2022-12-19T01:31:27.425Z,77.83
2022-12-19T01:33:55.334Z,77.70
2022-12-19T01:36:22.687Z,77.71
2022-12-19T01:38:49.281Z,77.87
2022-12-19T01:41:15.923Z,77.58
2022-12-19T01:43:56.934Z,77.75
2022-12-19T01:46:35.417Z,77.84
2022-12-19T01:49:03.962Z,78.04
2022-12-19T01:51:40.946Z,77.74
2022-12-19T01:54:11.949Z,77.86
2022-12-19T01:56:42.017Z,77.89
2022-12-19T01:59:15.945Z,77.89
2022-12-19T02:01:51.210Z,77.95
2022-12-19T02:04:30.911Z,77.76
2022-12-19T02:07:03.536Z,77.78
2022-12-19T02:09:47.116Z,77.81
2022-12-19T02:12:17.162Z,77.44
2022-12-19T02:14:44.267Z,77.58
2022-12-19T02:20:44.730Z,77.47
2022-12-19T02:23:50.190Z,77.76
2022-12-19T02:26:43.668Z,77.55
2022-12-19T02:29:28.838Z,77.93
2022-12-19T02:32:04.168Z,77.81
2022-12-19T02:35:02.155Z,77.76
2022-12-19T02:37:33.709Z,77.95
2022-12-19T02:40:26.696Z,77.76
2022-12-19T02:42:58.855Z,78.04
2022-12-19T02:45:30.367Z,77.94
2022-12-19T02:48:04.563Z,77.86
2022-12-19T02:50:42.171Z,77.61
2022-12-19T02:53:11.968Z,77.72
2022-12-19T02:55:48.892Z,77.48
2022-12-19T02:58:15.641Z,77.09
2022-12-19T03:01:02.788Z,77.24
2022-12-19T03:03:52.326Z,77.28
2022-12-19T03:06:36.781Z,77.16
2022-12-19T03:09:11.435Z,76.97
2022-12-19T03:11:41.533Z,76.92
2022-12-19T03:14:15.944Z,77.25
2022-12-19T03:16:42.822Z,76.96
2022-12-19T03:19:13.009Z,77.04
2022-12-19T03:21:43.547Z,77.20
2022-12-19T03:24:12.527Z,76.91
2022-12-19T03:26:55.181Z,77.05
2022-12-19T03:29:37.857Z,77.07
2022-12-19T03:32:08.846Z,77.40
2022-12-19T03:34:44.484Z,77.02
2022-12-19T03:37:16.962Z,77.54
2022-12-19T03:39:49.334Z,77.31
2022-12-19T03:42:36.918Z,77.10
2022-12-19T03:45:06.133Z,77.20
2022-12-19T03:47:46.474Z,77.25
2022-12-19T03:50:13.276Z,76.90
2022-12-19T03:53:30.746Z,76.92
2022-12-19T03:56:22.081Z,77.16
2022-12-19T03:58:56.074Z,77.30
2022-12-19T04:01:25.533Z,77.43
2022-12-19T04:03:52.495Z,77.62
2022-12-19T04:06:19.615Z,77.55
2022-12-19T04:08:46.518Z,77.56
2022-12-19T04:11:19.457Z,77.58
2022-12-19T04:13:54.221Z,77.63
2022-12-19T04:16:41.546Z,77.33
2022-12-19T04:19:42.457Z,77.33
2022-12-19T04:22:50.731Z,77.39
2022-12-19T04:25:26.284Z,77.29
2022-12-19T04:28:01.376Z,77.37
2022-12-19T04:30:28.426Z,77.10
2022-12-19T04:32:56.597Z,77.05
2022-12-19T04:35:23.380Z,77.01
2022-12-19T04:37:51.476Z,77.00
2022-12-19T04:40:18.274Z,77.11
2022-12-19T04:42:44.848Z,77.03
2022-12-19T04:45:11.436Z,77.16
2022-12-19T04:47:38.365Z,76.97
2022-12-19T04:50:05.805Z,76.79
2022-12-19T04:52:32.458Z,76.99
2022-12-19T04:54:59.297Z,77.03
2022-12-19T04:57:29.423Z,77.17
2022-12-19T04:59:56.057Z,77.10
2022-12-19T05:02:23.501Z,77.16
2022-12-19T05:04:51.055Z,77.22
2022-12-19T05:07:17.706Z,77.41
2022-12-19T05:09:44.360Z,77.17
2022-12-19T05:12:11.185Z,77.40
2022-12-19T05:14:37.788Z,77.10
2022-12-19T05:17:04.441Z,77.34
2022-12-19T05:19:31.034Z,77.24
2022-12-19T05:21:58.250Z,77.37
2022-12-19T05:24:24.891Z,77.61
2022-12-19T05:26:51.518Z,77.20
2022-12-19T05:29:18.197Z,77.77
2022-12-19T05:31:44.950Z,77.84
2022-12-19T05:34:11.739Z,78.20
2022-12-19T05:36:38.478Z,78.02
2022-12-19T05:39:05.230Z,77.63
2022-12-19T05:41:31.954Z,77.33
2022-12-19T05:43:58.836Z,77.97
2022-12-19T05:46:26.694Z,77.62
2022-12-19T05:48:54.000Z,77.49
2022-12-19T05:51:21.066Z,77.64
2022-12-19T05:53:47.821Z,77.61
2022-12-19T05:56:17.187Z,77.19
2022-12-19T05:58:44.763Z,77.25
2022-12-19T06:01:16.025Z,77.03
2022-12-19T06:03:43.571Z,76.95
2022-12-19T06:06:13.459Z,76.98
2022-12-19T06:08:40.884Z,77.31
2022-12-19T06:11:10.132Z,76.85
2022-12-19T06:13:38.032Z,77.14
2022-12-19T06:16:12.296Z,76.72
2022-12-19T06:18:44.490Z,77.07
2022-12-19T06:21:17.546Z,77.00
2022-12-19T06:23:45.031Z,76.64
2022-12-19T06:26:19.072Z,76.52
2022-12-19T06:28:50.143Z,76.72
2022-12-19T06:31:18.379Z,76.58
2022-12-19T06:33:45.174Z,76.81
2022-12-19T06:36:17.556Z,76.83
2022-12-19T06:38:44.201Z,76.63
2022-12-19T06:41:29.512Z,76.83
2022-12-19T06:44:00.554Z,76.88
2022-12-19T06:46:27.567Z,76.88
2022-12-19T06:48:54.392Z,76.91
2022-12-19T06:51:21.350Z,76.31
2022-12-19T06:53:48.765Z,76.19
2022-12-19T06:56:16.602Z,76.03
2022-12-19T06:58:43.303Z,76.13
2022-12-19T07:01:32.437Z,76.30
2022-12-19T07:03:59.507Z,75.62
2022-12-19T07:06:26.253Z,75.92
2022-12-19T07:08:53.004Z,75.71
2022-12-19T07:11:19.627Z,75.95
2022-12-19T07:13:46.465Z,75.90
2022-12-19T07:16:13.372Z,75.12
2022-12-19T07:18:40.644Z,75.21
2022-12-19T07:21:10.781Z,75.21
2022-12-19T07:23:38.733Z,75.16
2022-12-19T07:26:05.708Z,74.97
2022-12-19T07:28:34.101Z,74.80
2022-12-19T07:31:00.808Z,74.65
2022-12-19T07:33:27.447Z,74.65
2022-12-19T07:35:54.197Z,74.68
2022-12-19T07:38:21.027Z,74.72
2022-12-19T07:40:47.661Z,74.47
2022-12-19T07:43:14.346Z,74.36
2022-12-19T07:45:42.654Z,74.10
2022-12-19T07:48:09.825Z,74.02
2022-12-19T07:50:36.571Z,74.08
2022-12-19T07:53:03.305Z,74.29
2022-12-19T07:55:29.993Z,74.36
2022-12-19T07:57:56.689Z,74.05
2022-12-19T08:00:23.429Z,73.82
2022-12-19T08:02:50.345Z,73.77
2022-12-19T08:05:17.932Z,73.40
2022-12-19T08:07:44.871Z,73.45
2022-12-19T08:10:14.004Z,73.17
2022-12-19T08:12:41.341Z,73.22
2022-12-19T08:15:09.027Z,72.75
2022-12-19T08:17:38.326Z,73.10
2022-12-19T08:20:07.427Z,73.02
2022-12-19T08:22:34.193Z,72.77
2022-12-19T08:25:00.848Z,72.81
2022-12-19T08:27:27.795Z,72.59
2022-12-19T08:29:54.538Z,72.19
2022-12-19T08:32:22.020Z,72.53
2022-12-19T08:34:49.523Z,72.21
2022-12-19T08:37:16.742Z,72.36
2022-12-19T08:39:43.523Z,72.11
2022-12-19T08:42:10.276Z,71.87
2022-12-19T08:44:36.976Z,71.95
2022-12-19T08:47:04.080Z,71.51
2022-12-19T08:49:30.821Z,71.52
2022-12-19T08:51:57.491Z,71.65
2022-12-19T08:54:24.282Z,71.30
2022-12-19T08:56:51.137Z,70.99
2022-12-19T08:59:19.278Z,71.39
2022-12-19T09:01:58.125Z,71.50
2022-12-19T09:05:39.522Z,71.09
2022-12-19T09:07:15.281Z,70.92
2022-12-19T09:09:43.852Z,70.77
2022-12-19T09:12:12.852Z,70.92
2022-12-19T09:14:39.574Z,70.80
2022-12-19T09:17:06.377Z,70.48
2022-12-19T09:19:33.352Z,70.72
2022-12-19T09:22:00.013Z,70.35
2022-12-19T09:24:26.722Z,70.04
2022-12-19T09:26:53.521Z,70.35
2022-12-19T09:29:21.795Z,70.02
2022-12-19T09:31:55.303Z,69.81
2022-12-19T09:34:36.839Z,69.90
2022-12-19T09:37:07.325Z,70.15
2022-12-19T09:39:35.533Z,70.10
2022-12-19T09:42:05.343Z,69.93
2022-12-19T09:44:59.458Z,69.53
2022-12-19T09:47:30.399Z,69.53
2022-12-19T09:49:59.251Z,69.63
2022-12-19T09:52:37.964Z,69.30
2022-12-19T09:55:09.564Z,69.17
2022-12-19T09:58:00.830Z,69.51
2022-12-19T10:00:39.746Z,68.98
2022-12-19T10:03:32.305Z,69.06
2022-12-19T10:07:11.070Z,69.21
2022-12-19T10:09:57.790Z,68.67
2022-12-19T10:12:43.318Z,68.83
2022-12-19T10:15:19.147Z,68.80
2022-12-19T10:17:48.613Z,68.78
2022-12-19T10:20:27.751Z,68.65
2022-12-19T10:23:22.057Z,68.18
2022-12-19T10:26:22.877Z,68.30
2022-12-19T10:29:05.952Z,68.04
2022-12-19T10:31:47.689Z,67.97
2022-12-19T10:34:24.058Z,68.24
2022-12-19T10:37:27.193Z,67.84
2022-12-19T10:39:52.824Z,67.60
2022-12-19T10:42:33.023Z,67.45
2022-12-19T10:45:04.262Z,67.46
2022-12-19T10:47:31.180Z,67.26
2022-12-19T10:49:59.515Z,67.37
2022-12-19T10:52:48.203Z,67.40
2022-12-19T10:55:34.138Z,66.98
2022-12-19T10:58:16.572Z,67.38
2022-12-19T11:01:16.431Z,66.80
2022-12-19T11:03:47.774Z,66.89
2022-12-19T11:06:35.940Z,66.81
2022-12-19T11:09:36.041Z,66.32
2022-12-19T11:16:38.405Z,66.31
2022-12-19T11:19:47.138Z,66.49
2022-12-19T11:29:15.318Z,66.15
2022-12-19T11:29:25.172Z,66.57
2022-12-19T11:29:54.359Z,66.24
2022-12-19T11:30:21.353Z,66.07
2022-12-19T11:32:50.547Z,66.01
2022-12-19T11:35:17.737Z,65.66
2022-12-19T11:38:04.283Z,65.71
2022-12-19T11:40:31.288Z,65.58
2022-12-19T11:43:42.693Z,65.37
2022-12-19T11:46:02.019Z,65.39
2022-12-19T11:48:47.487Z,65.01
2022-12-19T11:51:23.609Z,65.17
2022-12-19T11:54:01.957Z,65.17
2022-12-19T11:56:29.174Z,65.14
2022-12-19T11:59:16.252Z,65.21
2022-12-19T12:02:00.598Z,65.10
2022-12-19T12:04:48.745Z,64.94
2022-12-19T12:07:19.311Z,65.12
2022-12-19T12:14:06.243Z,64.99
2022-12-19T12:19:23.184Z,64.79
2022-12-19T12:26:43.809Z,65.10
2022-12-19T12:31:31.783Z,65.04
2022-12-19T12:31:44.393Z,65.26
2022-12-19T12:32:01.908Z,65.30
2022-12-19T12:32:01.910Z,65.38
2022-12-19T12:35:52.122Z,65.23
2022-12-19T12:36:53.017Z,65.61
2022-12-19T12:38:22.441Z,65.71
2022-12-19T12:41:42.971Z,65.55
2022-12-19T12:44:11.598Z,65.53
2022-12-19T12:47:00.839Z,65.34
2022-12-19T12:49:45.858Z,65.28
2022-12-19T12:52:31.147Z,65.26
2022-12-19T12:54:58.338Z,65.70
2022-12-19T12:57:28.713Z,65.42
2022-12-19T13:00:33.309Z,65.48
2022-12-19T13:03:19.053Z,65.46
2022-12-19T13:05:45.773Z,65.46
2022-12-19T13:08:34.119Z,65.44
2022-12-19T13:11:33.609Z,65.41
2022-12-19T13:14:00.711Z,65.52
2022-12-19T13:16:47.803Z,65.56
2022-12-19T13:19:28.700Z,65.78
2022-12-19T13:22:08.126Z,65.87
2022-12-19T13:24:46.870Z,66.05
2022-12-19T13:27:19.479Z,65.87
2022-12-19T13:30:07.431Z,66.01
2022-12-19T13:32:39.906Z,66.32
2022-12-19T13:36:18.018Z,66.32
2022-12-19T13:39:51.734Z,66.47
2022-12-19T13:41:23.354Z,66.77
2022-12-19T13:43:50.068Z,66.81
2022-12-19T13:46:37.859Z,66.82
2022-12-19T13:49:29.865Z,67.17
2022-12-19T13:52:01.552Z,67.00
2022-12-19T13:54:33.985Z,67.06
2022-12-19T13:57:08.069Z,67.03
2022-12-19T13:59:39.760Z,66.87
2022-12-19T14:02:15.997Z,66.92
2022-12-19T14:04:44.198Z,66.84
2022-12-19T14:07:45.951Z,67.01
2022-12-19T14:11:32.691Z,66.89
2022-12-19T14:13:40.015Z,66.75
2022-12-19T14:16:23.377Z,66.95
2022-12-19T14:19:27.284Z,66.78
2022-12-19T14:22:11.705Z,66.79
2022-12-19T14:24:41.211Z,66.84
2022-12-19T14:28:20.605Z,66.65
2022-12-19T14:30:31.006Z,66.62
2022-12-19T14:33:39.880Z,66.74
2022-12-19T14:36:10.320Z,66.94
2022-12-19T14:39:26.451Z,66.88
2022-12-19T14:42:01.397Z,66.92
2022-12-19T14:51:51.587Z,67.10
2022-12-19T14:52:51.356Z,66.76
2022-12-19T14:54:25.924Z,67.29
2022-12-19T14:54:55.127Z,67.25
2022-12-19T14:56:46.786Z,66.98
2022-12-19T14:59:04.985Z,67.34
2022-12-19T15:01:34.420Z,67.47
2022-12-19T15:04:49.348Z,67.19
2022-12-19T15:07:09.859Z,67.22
2022-12-19T15:11:04.448Z,66.93
2022-12-19T15:14:47.838Z,67.35
2022-12-19T15:16:05.910Z,67.49
2022-12-19T15:18:32.810Z,67.37
2022-12-19T15:21:01.871Z,67.34
2022-12-19T15:23:29.234Z,67.42
2022-12-19T15:26:03.817Z,67.39
2022-12-19T15:28:40.509Z,67.09
2022-12-19T15:31:35.842Z,67.10
2022-12-19T15:34:34.995Z,67.09
2022-12-19T15:37:03.871Z,67.22
2022-12-19T15:39:30.522Z,67.56
2022-12-19T15:41:59.723Z,67.61
2022-12-19T15:44:41.697Z,67.54
2022-12-19T15:47:19.057Z,67.46
2022-12-19T15:49:46.263Z,67.51
2022-12-19T15:52:17.281Z,67.63
2022-12-19T15:54:49.705Z,68.16
2022-12-19T15:57:29.255Z,68.15
2022-12-19T15:59:59.428Z,67.94
2022-12-19T16:02:42.632Z,67.73
2022-12-19T16:05:15.768Z,67.51
2022-12-19T16:07:43.064Z,67.73
2022-12-19T16:10:11.437Z,67.45
2022-12-19T16:12:41.109Z,67.38
2022-12-19T16:15:24.680Z,67.01
2022-12-19T16:17:52.637Z,66.66
2022-12-19T16:20:30.651Z,66.53
2022-12-19T16:22:57.493Z,66.62
2022-12-19T16:25:30.698Z,67.10
2022-12-19T16:27:59.235Z,67.03
2022-12-19T16:30:30.117Z,66.81
2022-12-19T16:32:57.647Z,66.73
2022-12-19T16:35:54.918Z,66.65
2022-12-19T16:38:12.700Z,66.78
2022-12-19T16:40:39.744Z,66.65
2022-12-19T16:43:14.937Z,66.81
2022-12-19T16:45:42.715Z,67.16
2022-12-19T16:48:22.615Z,67.24
2022-12-19T16:50:50.358Z,66.91
2022-12-19T16:53:17.419Z,66.71
2022-12-19T16:55:46.525Z,66.98
2022-12-19T16:58:18.346Z,66.95
2022-12-19T17:00:45.589Z,67.09
2022-12-19T17:03:34.396Z,67.16
2022-12-19T17:06:01.282Z,67.31
2022-12-19T17:08:27.907Z,67.29
2022-12-19T17:10:55.220Z,67.47
2022-12-19T17:13:23.014Z,67.33
2022-12-19T17:15:56.429Z,67.37
2022-12-19T17:18:26.190Z,67.38
2022-12-19T17:20:53.011Z,67.23
2022-12-19T17:23:22.043Z,67.35
2022-12-19T17:25:49.256Z,67.33
2022-12-19T17:28:16.628Z,67.42
2022-12-19T17:30:52.031Z,67.39
2022-12-19T17:33:21.613Z,67.42
2022-12-19T17:35:48.313Z,67.12
2022-12-19T17:38:16.982Z,67.17
2022-12-19T17:40:44.252Z,67.10
2022-12-19T17:43:11.929Z,67.28
2022-12-19T17:45:39.257Z,67.33
2022-12-19T17:48:20.424Z,67.18
2022-12-19T17:50:47.492Z,67.25
2022-12-19T17:53:14.809Z,67.14
2022-12-19T17:55:41.403Z,67.18
2022-12-19T17:58:10.058Z,67.23
2022-12-19T18:00:37.849Z,67.48
2022-12-19T18:03:17.061Z,67.54
2022-12-19T18:05:44.037Z,67.54
2022-12-19T18:08:36.720Z,67.49
2022-12-19T18:11:06.983Z,67.71
2022-12-19T18:13:33.615Z,67.86
2022-12-19T18:16:02.850Z,67.91
2022-12-19T18:18:33.174Z,68.00
2022-12-19T18:21:00.598Z,68.01
2022-12-19T18:23:27.836Z,68.08
2022-12-19T18:25:59.470Z,68.15
2022-12-19T18:28:28.584Z,67.98
2022-12-19T18:31:02.413Z,68.06
2022-12-19T18:33:36.202Z,68.06
2022-12-19T18:36:05.061Z,67.97
2022-12-19T18:38:32.189Z,67.92
2022-12-19T18:40:58.861Z,67.78
2022-12-19T18:43:25.513Z,67.62
2022-12-19T18:45:52.722Z,67.75
2022-12-19T18:48:25.255Z,67.84
2022-12-19T18:50:52.877Z,68.04
2022-12-19T18:53:21.811Z,67.91
2022-12-19T18:55:50.435Z,68.02
2022-12-19T18:58:18.555Z,68.15
2022-12-19T19:00:46.390Z,68.12
2022-12-19T19:03:16.166Z,68.25
2022-12-19T19:05:43.973Z,68.22
2022-12-19T19:08:22.171Z,68.57
2022-12-19T19:10:55.883Z,68.41
2022-12-19T19:13:24.893Z,68.43
2022-12-19T19:15:56.172Z,68.69
2022-12-19T19:18:46.432Z,68.73
2022-12-19T19:21:14.765Z,69.09
2022-12-19T19:24:07.653Z,68.97
2022-12-19T19:26:34.367Z,69.10
2022-12-19T19:29:01.070Z,69.25
2022-12-19T19:31:31.112Z,69.55
2022-12-19T19:34:04.348Z,70.10
2022-12-19T19:36:35.357Z,70.30
2022-12-19T19:39:03.980Z,70.80
2022-12-19T19:41:32.408Z,71.07
2022-12-19T19:43:59.552Z,71.45
2022-12-19T19:46:27.592Z,71.58
2022-12-19T19:48:54.814Z,72.13
2022-12-19T19:51:21.517Z,72.06
2022-12-19T19:53:48.309Z,72.26
2022-12-19T19:56:14.927Z,72.53
2022-12-19T19:58:41.531Z,72.87
2022-12-19T20:01:10.221Z,73.27
2022-12-19T20:03:39.208Z,73.53
2022-12-19T20:06:06.169Z,73.77
2022-12-19T20:08:39.202Z,73.95
2022-12-19T20:11:08.673Z,74.16
2022-12-19T20:13:36.960Z,74.38
2022-12-19T20:16:10.636Z,74.46
2022-12-19T20:18:39.404Z,74.69
2022-12-19T20:21:13.603Z,74.96
2022-12-19T20:23:42.661Z,75.00
2022-12-19T20:26:11.004Z,75.26
2022-12-19T20:28:43.718Z,75.51
2022-12-19T20:31:14.279Z,75.55
2022-12-19T20:33:41.143Z,76.15
2022-12-19T20:36:10.342Z,76.35
2022-12-19T20:38:38.149Z,76.35
2022-12-19T20:41:05.385Z,76.51
2022-12-19T20:43:32.322Z,76.71
2022-12-19T20:46:03.829Z,76.78
2022-12-19T20:48:31.031Z,76.88
2022-12-19T20:50:59.087Z,76.99
2022-12-19T20:53:26.552Z,77.10
2022-12-19T20:55:58.594Z,77.38
2022-12-19T20:58:26.551Z,77.83
2022-12-19T21:01:17.597Z,77.95
2022-12-19T21:03:45.482Z,78.29
2022-12-19T21:06:16.021Z,78.24
2022-12-19T21:08:42.690Z,78.56
2022-12-19T21:11:09.387Z,78.85
2022-12-19T21:13:37.653Z,78.86
2022-12-19T21:16:07.948Z,78.88
2022-12-19T21:18:37.062Z,78.97
2022-12-19T21:21:04.737Z,79.22
2022-12-19T21:23:32.034Z,79.07
2022-12-19T21:26:01.338Z,79.36
2022-12-19T21:28:28.789Z,79.39
2022-12-19T21:31:00.343Z,79.49
2022-12-19T21:33:27.505Z,79.49
2022-12-19T21:35:54.665Z,79.61
2022-12-19T21:38:21.733Z,79.97
2022-12-19T21:40:48.437Z,79.95
2022-12-19T21:43:15.656Z,80.16
2022-12-19T21:45:42.258Z,80.13
2022-12-19T21:48:08.970Z,80.37
2022-12-19T21:50:35.690Z,80.68
2022-12-19T21:53:02.291Z,81.01
2022-12-19T21:55:28.888Z,81.29
2022-12-19T21:57:55.730Z,81.56
2022-12-19T22:00:22.576Z,81.68
2022-12-19T22:03:12.212Z,81.86
2022-12-19T22:05:36.102Z,82.68
2022-12-19T22:08:02.833Z,82.80
2022-12-19T22:10:29.494Z,82.85
2022-12-19T22:12:56.115Z,82.85
2022-12-19T22:15:22.663Z,82.89
2022-12-19T22:17:49.251Z,83.00
2022-12-19T22:20:16.058Z,82.92
2022-12-19T22:22:42.619Z,83.02
2022-12-19T22:25:09.566Z,83.15
2022-12-19T22:27:36.234Z,83.28
2022-12-19T22:30:08.700Z,83.32
2022-12-19T22:32:37.567Z,83.46
2022-12-19T22:35:04.975Z,83.78
2022-12-19T22:37:31.695Z,83.93
2022-12-19T22:39:59.558Z,84.21
2022-12-19T22:42:27.270Z,84.71
2022-12-19T22:44:53.852Z,85.04
2022-12-19T22:47:20.417Z,85.41
2022-12-19T22:49:50.210Z,85.50
2022-12-19T22:52:16.931Z,85.88
2022-12-19T22:54:43.858Z,86.02
2022-12-19T22:57:10.435Z,86.31
2022-12-19T22:59:37.070Z,86.47
2022-12-19T23:02:03.887Z,86.77
2022-12-19T23:04:30.657Z,86.59
2022-12-19T23:06:57.301Z,86.42
2022-12-19T23:09:23.883Z,86.40
2022-12-19T23:11:50.589Z,86.43
2022-12-19T23:14:18.854Z,86.50
2022-12-19T23:16:46.312Z,86.54
2022-12-19T23:19:15.943Z,86.35
2022-12-19T23:21:42.542Z,86.60
2022-12-19T23:24:10.253Z,86.81
2022-12-19T23:26:37.370Z,86.64
2022-12-19T23:29:10.154Z,86.71
2022-12-19T23:31:40.536Z,86.62
2022-12-19T23:34:07.363Z,86.59
2022-12-19T23:39:20.656Z,86.66
2022-12-19T23:41:47.253Z,86.62
2022-12-19T23:44:14.738Z,86.58
2022-12-19T23:46:41.377Z,86.51
2022-12-19T23:49:08.030Z,86.67
2022-12-19T23:51:34.673Z,86.47
2022-12-19T23:54:01.286Z,86.30
2022-12-19T23:56:29.666Z,86.28
2022-12-19T23:58:57.119Z,86.22
